createdAt,value
2022-12-20T00:01:40.403Z,23.38
2022-12-20T00:04:09.801Z,24.80
2022-12-20T00:06:37.759Z,25.38
2022-12-20T00:09:07.841Z,24.15
2022-12-20T00:11:38.340Z,22.75
2022-12-20T00:14:06.642Z,25.80
2022-12-20T00:16:35.896Z,25.45
2022-12-20T00:19:06.642Z,24.08
2022-12-20T00:21:35.966Z,22.73
2022-12-20T00:24:05.362Z,23.17
2022-12-20T00:26:35.611Z,23.95
2022-12-20T00:29:04.355Z,23.38
2022-12-20T00:31:33.258Z,23.58
2022-12-20T00:34:01.576Z,23.02
2022-12-20T00:36:32.169Z,23.38
2022-12-20T00:39:01.342Z,25.10
2022-12-20T00:41:33.569Z,24.92
2022-12-20T00:44:02.519Z,25.48
2022-12-20T00:46:32.269Z,25.10
2022-12-20T00:49:00.452Z,24.80
2022-12-20T00:51:30.319Z,23.95
2022-12-20T00:53:58.360Z,24.20
2022-12-20T00:56:26.944Z,23.52
2022-12-20T00:58:59.655Z,23.95
2022-12-20T01:01:30.975Z,23.60
2022-12-20T01:03:59.507Z,23.10
2022-12-20T01:06:28.392Z,23.67
2022-12-20T01:08:57.218Z,22.85
2022-12-20T01:11:36.388Z,22.80
2022-12-20T01:14:08.614Z,22.77
2022-12-20T01:16:40.159Z,22.85
2022-12-20T01:19:11.100Z,21.65
2022-12-20T01:21:45.067Z,23.67
2022-12-20T01:24:17.937Z,21.77
2022-12-20T01:26:47.032Z,23.80
2022-12-20T01:29:15.332Z,23.50
2022-12-20T01:31:43.762Z,22.00
2022-12-20T01:34:12.052Z,24.02
2022-12-20T01:36:40.005Z,22.73
2022-12-20T01:39:16.647Z,23.08
2022-12-20T01:41:46.855Z,22.42
2022-12-20T01:44:17.901Z,23.02
2022-12-20T01:46:48.469Z,22.77
2022-12-20T01:49:25.494Z,22.58
2022-12-20T01:52:04.981Z,20.38
2022-12-20T01:54:40.673Z,22.90
2022-12-20T01:57:12.972Z,22.05
2022-12-20T01:59:43.949Z,20.27
2022-12-20T02:02:13.572Z,22.00
2022-12-20T02:04:41.684Z,19.20
2022-12-20T02:07:16.307Z,19.50
2022-12-20T02:09:44.615Z,18.92
2022-12-20T02:12:16.511Z,20.70
2022-12-20T02:15:13.405Z,19.00
2022-12-20T02:18:12.401Z,18.67
2022-12-20T02:21:02.599Z,19.75
2022-12-20T02:23:33.493Z,18.52
2022-12-20T02:26:29.363Z,18.35
2022-12-20T02:29:15.621Z,16.73
2022-12-20T02:31:55.133Z,16.33
2022-12-20T02:34:27.829Z,16.42
2022-12-20T02:36:55.832Z,14.98
2022-12-20T02:39:27.420Z,14.07
2022-12-20T02:42:01.864Z,15.43
2022-12-20T02:44:52.290Z,14.77
2022-12-20T02:47:34.791Z,13.90
2022-12-20T02:50:04.844Z,16.25
2022-12-20T02:52:34.403Z,14.30
2022-12-20T02:55:05.131Z,16.10
2022-12-20T02:58:02.029Z,15.02
2022-12-20T03:00:34.521Z,16.38
2022-12-20T03:03:21.120Z,15.30
2022-12-20T03:05:51.353Z,17.15
2022-12-20T03:08:22.008Z,15.98
2022-12-20T03:10:52.226Z,14.77
2022-12-20T03:13:22.307Z,15.13
2022-12-20T03:15:59.055Z,16.08
2022-12-20T03:18:27.525Z,14.88
2022-12-20T03:20:55.418Z,14.80
2022-12-20T03:23:23.488Z,16.23
2022-12-20T03:25:51.634Z,17.65
2022-12-20T03:28:34.475Z,16.52
2022-12-20T03:31:02.559Z,17.02
2022-12-20T03:33:34.316Z,16.35
2022-12-20T03:36:07.455Z,16.58
2022-12-20T03:38:35.531Z,17.20
2022-12-20T03:41:04.574Z,16.35
2022-12-20T03:43:32.596Z,16.95
2022-12-20T03:46:00.697Z,17.83
2022-12-20T03:48:32.182Z,16.73
2022-12-20T03:51:00.492Z,15.98
2022-12-20T03:53:28.493Z,17.38
2022-12-20T03:55:56.834Z,17.95
2022-12-20T03:58:25.060Z,19.73
2022-12-20T04:00:53.526Z,17.15
2022-12-20T04:03:51.291Z,19.48
2022-12-20T04:06:20.188Z,17.98
2022-12-20T04:08:48.165Z,17.55
2022-12-20T04:11:23.796Z,17.90
2022-12-20T04:13:56.823Z,19.75
2022-12-20T04:16:28.076Z,19.00
2022-12-20T04:18:57.480Z,18.90
2022-12-20T04:21:32.059Z,19.00
2022-12-20T04:24:01.849Z,18.83
2022-12-20T04:26:50.085Z,19.63
2022-12-20T04:29:18.741Z,18.88
2022-12-20T04:31:47.561Z,19.02
2022-12-20T04:34:15.789Z,20.15
2022-12-20T04:36:43.683Z,20.65
2022-12-20T04:39:18.895Z,19.08
2022-12-20T04:42:06.797Z,21.98
2022-12-20T04:44:34.791Z,21.65
2022-12-20T04:47:04.580Z,21.85
2022-12-20T04:49:32.706Z,20.50
2022-12-20T04:52:20.689Z,18.23
2022-12-20T04:54:49.415Z,19.83
2022-12-20T04:59:51.501Z,21.00
2022-12-20T05:02:20.185Z,19.13
2022-12-20T05:04:52.320Z,20.95
2022-12-20T05:07:20.284Z,20.48
2022-12-20T05:09:52.472Z,18.98
2022-12-20T05:12:20.575Z,18.02
2022-12-20T05:14:48.519Z,18.13
2022-12-20T05:17:20.384Z,20.00
2022-12-20T05:19:48.271Z,18.80
2022-12-20T05:22:35.806Z,17.58
2022-12-20T05:25:32.415Z,18.52
2022-12-20T05:28:04.936Z,18.92
2022-12-20T05:30:36.141Z,17.70
2022-12-20T05:33:04.435Z,17.42
2022-12-20T05:35:32.928Z,17.00
2022-12-20T05:38:06.180Z,15.88
2022-12-20T05:40:34.344Z,17.30
2022-12-20T05:43:03.175Z,16.58
2022-12-20T05:45:37.554Z,16.77
2022-12-20T05:48:12.029Z,18.13
2022-12-20T05:50:41.936Z,15.52
2022-12-20T05:53:26.887Z,17.20
2022-12-20T05:56:01.538Z,16.30
2022-12-20T05:58:33.398Z,16.42
2022-12-20T06:01:05.427Z,15.45
2022-12-20T06:03:39.364Z,16.33
2022-12-20T06:06:15.432Z,16.35
2022-12-20T06:08:46.786Z,18.40
2022-12-20T06:11:25.795Z,17.10
2022-12-20T06:14:02.407Z,16.65
2022-12-20T06:16:31.579Z,17.90
2022-12-20T06:19:00.869Z,16.88
2022-12-20T06:21:29.710Z,15.98
2022-12-20T06:23:58.162Z,16.63
2022-12-20T06:26:27.686Z,15.45
2022-12-20T06:28:57.344Z,16.40
2022-12-20T06:31:33.541Z,17.08
2022-12-20T06:34:01.875Z,16.92
2022-12-20T06:36:34.609Z,17.25
2022-12-20T06:39:07.782Z,16.65
2022-12-20T06:41:41.633Z,17.38
2022-12-20T06:44:09.721Z,17.52
2022-12-20T06:46:37.821Z,18.45
2022-12-20T06:49:07.347Z,17.67
2022-12-20T06:55:31.446Z,16.40
2022-12-20T06:58:00.559Z,18.52
2022-12-20T07:00:29.919Z,16.95
2022-12-20T07:03:07.268Z,15.85
2022-12-20T07:05:45.552Z,17.13
2022-12-20T07:08:14.348Z,15.38
2022-12-20T07:10:42.280Z,15.63
2022-12-20T07:13:14.302Z,15.73
2022-12-20T07:15:42.007Z,17.70
2022-12-20T07:18:12.568Z,15.82
2022-12-20T07:20:46.852Z,15.20
2022-12-20T07:23:15.937Z,15.20
2022-12-20T07:25:43.612Z,14.95
2022-12-20T07:28:11.318Z,13.88
2022-12-20T07:30:39.040Z,15.18
2022-12-20T07:33:06.698Z,16.17
2022-12-20T07:35:34.366Z,15.52
2022-12-20T07:38:02.167Z,14.70
2022-12-20T07:40:29.972Z,15.60
2022-12-20T07:42:58.044Z,14.98
2022-12-20T07:45:26.610Z,16.88
2022-12-20T07:47:54.631Z,17.92
2022-12-20T07:50:22.488Z,20.38
2022-12-20T07:52:51.281Z,19.38
2022-12-20T07:55:19.687Z,18.88
2022-12-20T07:57:57.941Z,16.33
2022-12-20T08:00:25.877Z,16.23
2022-12-20T08:03:12.636Z,14.85
2022-12-20T08:05:47.589Z,17.05
2022-12-20T08:08:16.413Z,17.02
2022-12-20T08:10:44.556Z,17.10
2022-12-20T08:13:12.998Z,17.30
2022-12-20T08:15:40.996Z,18.10
2022-12-20T08:18:08.682Z,19.23
2022-12-20T08:20:36.395Z,21.98
2022-12-20T08:23:07.416Z,23.58
2022-12-20T08:25:41.109Z,22.83
2022-12-20T08:28:10.165Z,24.27
2022-12-20T08:30:38.214Z,24.10
2022-12-20T08:33:06.099Z,26.02
2022-12-20T08:35:34.111Z,25.70
2022-12-20T08:38:01.847Z,25.45
2022-12-20T08:40:29.673Z,22.08
2022-12-20T08:42:58.855Z,23.10
2022-12-20T08:45:26.644Z,22.80
2022-12-20T08:47:55.031Z,23.70
2022-12-20T08:50:22.722Z,22.48
2022-12-20T08:52:50.512Z,24.08
2022-12-20T08:55:22.006Z,25.60
2022-12-20T08:57:52.295Z,24.48
2022-12-20T09:00:20.294Z,24.88
2022-12-20T09:02:49.170Z,20.75
2022-12-20T09:05:17.056Z,23.80
2022-12-20T09:07:44.682Z,20.33
2022-12-20T09:10:13.200Z,21.35
2022-12-20T09:12:41.504Z,22.45
2022-12-20T09:15:10.041Z,21.95
2022-12-20T09:17:37.723Z,21.42
2022-12-20T09:20:06.082Z,20.08
2022-12-20T09:22:33.941Z,19.33
2022-12-20T09:25:01.611Z,19.70
2022-12-20T09:27:29.279Z,19.58
2022-12-20T09:29:57.037Z,19.20
2022-12-20T09:32:25.487Z,19.80
2022-12-20T09:35:10.262Z,20.70
2022-12-20T09:37:39.713Z,21.20
2022-12-20T09:40:15.051Z,21.15
2022-12-20T09:42:45.567Z,22.58
2022-12-20T09:45:43.471Z,21.55
2022-12-20T09:48:18.311Z,21.73
2022-12-20T09:51:05.033Z,22.75
2022-12-20T09:53:35.763Z,23.27
2022-12-20T09:56:15.118Z,24.02
2022-12-20T09:59:01.799Z,21.65
2022-12-20T10:01:38.652Z,23.27
2022-12-20T10:04:23.747Z,20.45
2022-12-20T10:07:13.327Z,20.50
2022-12-20T10:09:46.953Z,20.00
2022-12-20T10:12:38.211Z,23.13
2022-12-20T10:15:28.837Z,22.52
2022-12-20T10:18:11.776Z,22.25
2022-12-20T10:20:46.993Z,19.85
2022-12-20T10:23:32.799Z,20.40
2022-12-20T10:26:01.288Z,20.75
2022-12-20T10:28:34.093Z,20.08
2022-12-20T10:31:05.469Z,20.55
2022-12-20T10:33:33.632Z,21.10
2022-12-20T10:36:29.824Z,19.38
2022-12-20T10:39:04.268Z,20.48
2022-12-20T10:41:42.933Z,21.08
2022-12-20T10:44:19.212Z,19.23
2022-12-20T10:46:51.585Z,20.10
2022-12-20T10:49:37.231Z,20.48
2022-12-20T10:52:08.052Z,21.20
2022-12-20T10:54:39.331Z,20.70
2022-12-20T10:57:28.052Z,18.38
2022-12-20T11:00:06.099Z,19.20
2022-12-20T11:02:41.906Z,19.42
2022-12-20T11:05:13.099Z,17.77
2022-12-20T11:08:37.688Z,18.45
2022-12-20T11:11:17.651Z,16.92
2022-12-20T11:13:47.109Z,17.50
2022-12-20T11:16:37.445Z,17.75
2022-12-20T11:19:32.085Z,18.58
2022-12-20T11:24:58.550Z,14.88
2022-12-20T11:27:38.375Z,16.80
2022-12-20T11:30:14.663Z,15.57
2022-12-20T11:33:04.069Z,16.95
2022-12-20T11:35:55.157Z,16.50
2022-12-20T11:38:55.685Z,17.27
2022-12-20T11:41:44.487Z,15.55
2022-12-20T11:44:30.746Z,15.55
2022-12-20T11:47:10.601Z,13.70
2022-12-20T11:50:17.389Z,14.10
2022-12-20T11:52:58.926Z,15.25
2022-12-20T11:55:39.900Z,15.38
2022-12-20T11:58:21.163Z,13.38
2022-12-20T12:00:58.405Z,14.55
2022-12-20T12:03:36.134Z,14.20
2022-12-20T12:06:30.470Z,12.93
2022-12-20T12:09:13.310Z,15.30
2022-12-20T12:12:06.699Z,13.80
2022-12-20T12:15:07.010Z,14.38
2022-12-20T12:17:57.799Z,13.60
2022-12-20T12:20:53.163Z,23.15
2022-12-20T12:23:31.223Z,13.48
2022-12-20T12:26:05.772Z,12.95
2022-12-20T12:28:34.557Z,18.17
2022-12-20T12:31:12.754Z,17.33
2022-12-20T12:33:50.836Z,17.48
2022-12-20T12:36:35.989Z,19.42
2022-12-20T12:39:13.311Z,17.55
2022-12-20T12:41:58.621Z,20.35
2022-12-20T12:45:03.442Z,17.70
2022-12-20T12:47:49.392Z,20.20
2022-12-20T12:50:39.431Z,21.00
2022-12-20T12:53:50.302Z,20.95
2022-12-20T12:56:46.543Z,19.20
2022-12-20T12:59:32.886Z,20.20
2022-12-20T13:02:07.032Z,19.00
2022-12-20T13:05:13.660Z,21.35
2022-12-20T13:07:46.522Z,20.63
2022-12-20T13:10:18.470Z,23.08
2022-12-20T13:12:52.887Z,18.73
2022-12-20T13:15:20.713Z,20.77
2022-12-20T13:17:56.752Z,20.13
2022-12-20T13:20:28.005Z,21.35
2022-12-20T13:23:08.051Z,23.30
2022-12-20T13:25:55.131Z,23.13
2022-12-20T13:28:23.027Z,25.23
2022-12-20T13:30:53.902Z,25.70
2022-12-20T13:33:46.168Z,24.80
2022-12-20T13:36:16.912Z,22.27
2022-12-20T13:38:53.259Z,23.08
2022-12-20T13:41:32.608Z,23.15
2022-12-20T13:44:16.342Z,22.35
2022-12-20T13:46:49.840Z,20.98
2022-12-20T13:49:36.616Z,22.10
2022-12-20T13:52:30.578Z,23.67
2022-12-20T13:55:01.112Z,22.42
2022-12-20T13:57:33.194Z,21.13
2022-12-20T14:00:07.639Z,21.52
2022-12-20T14:02:42.146Z,22.13
2022-12-20T14:05:42.641Z,22.95
2022-12-20T14:08:19.074Z,22.58
2022-12-20T14:10:46.932Z,21.25
2022-12-20T14:13:22.010Z,20.02
2022-12-20T14:15:50.716Z,21.05
2022-12-20T14:18:25.316Z,21.05
2022-12-20T14:20:59.458Z,19.90
2022-12-20T14:26:01.924Z,19.50
2022-12-20T14:28:35.563Z,19.00
2022-12-20T14:31:05.303Z,21.13
2022-12-20T14:33:41.677Z,19.50
2022-12-20T14:36:19.529Z,20.77
2022-12-20T14:38:52.243Z,20.40
2022-12-20T14:41:44.137Z,19.50
2022-12-20T14:44:21.942Z,21.92
2022-12-20T14:46:56.488Z,21.77
2022-12-20T14:49:37.361Z,21.70
2022-12-20T14:52:11.400Z,22.13
2022-12-20T14:55:07.712Z,21.60
2022-12-20T14:57:36.527Z,21.45
2022-12-20T15:00:19.481Z,23.17
2022-12-20T15:02:56.323Z,19.83
2022-12-20T15:05:36.966Z,22.00
2022-12-20T15:08:15.208Z,19.88
2022-12-20T15:10:58.015Z,20.65
2022-12-20T15:13:39.225Z,20.80
2022-12-20T15:16:20.877Z,20.52
2022-12-20T15:19:02.966Z,20.65
2022-12-20T15:21:37.528Z,21.08
2022-12-20T15:24:10.784Z,19.65
2022-12-20T15:26:39.150Z,19.95
2022-12-20T15:29:07.159Z,20.05
2022-12-20T15:31:36.793Z,20.52
2022-12-20T15:34:14.532Z,19.27
2022-12-20T15:36:42.834Z,20.90
2022-12-20T15:39:13.828Z,18.65
2022-12-20T15:41:46.562Z,20.90
2022-12-20T15:44:20.754Z,20.90
2022-12-20T15:46:49.250Z,23.00
2022-12-20T15:49:21.765Z,20.67
2022-12-20T15:51:52.689Z,21.48
2022-12-20T15:54:30.085Z,21.48
2022-12-20T15:57:04.091Z,21.63
2022-12-20T15:59:59.096Z,22.08
2022-12-20T16:02:28.126Z,20.77
2022-12-20T16:04:57.801Z,19.88
2022-12-20T16:07:26.046Z,21.30
2022-12-20T16:09:54.344Z,20.65
2022-12-20T16:12:34.916Z,22.40
2022-12-20T16:15:04.140Z,22.35
2022-12-20T16:17:32.624Z,21.88
2022-12-20T16:20:00.577Z,22.67
2022-12-20T16:22:28.413Z,24.02
2022-12-20T16:24:56.758Z,22.70
2022-12-20T16:27:25.252Z,22.42
2022-12-20T16:29:53.128Z,21.58
2022-12-20T16:32:24.148Z,21.83
2022-12-20T16:34:52.836Z,23.77
2022-12-20T16:37:21.099Z,22.33
2022-12-20T16:39:49.105Z,22.70
2022-12-20T16:42:23.394Z,22.25
2022-12-20T16:44:53.553Z,24.38
2022-12-20T16:47:22.581Z,22.10
2022-12-20T16:49:53.527Z,22.85
2022-12-20T16:52:23.547Z,22.52
2022-12-20T16:54:53.213Z,22.80
2022-12-20T16:57:22.007Z,23.13
2022-12-20T16:59:51.284Z,23.08
2022-12-20T17:02:27.100Z,23.10
2022-12-20T17:04:56.324Z,23.73
2022-12-20T17:07:41.700Z,20.80
2022-12-20T17:10:38.637Z,23.25
2022-12-20T17:13:16.290Z,25.48
2022-12-20T17:16:01.605Z,22.92
2022-12-20T17:18:59.940Z,24.05
2022-12-20T17:24:23.742Z,24.00
2022-12-20T17:26:52.859Z,23.77
2022-12-20T17:29:43.339Z,22.50
2022-12-20T17:32:26.422Z,23.65
2022-12-20T17:34:55.465Z,20.85
2022-12-20T17:37:26.058Z,21.23
2022-12-20T17:39:56.018Z,21.35
2022-12-20T17:42:31.391Z,23.17
2022-12-20T17:45:00.143Z,22.25
2022-12-20T17:47:28.236Z,21.80
2022-12-20T17:49:56.838Z,20.98
2022-12-20T17:52:26.132Z,19.65
2022-12-20T17:54:54.126Z,20.15
2022-12-20T17:57:22.829Z,18.85
2022-12-20T17:59:50.725Z,20.38
2022-12-20T18:02:24.605Z,20.70
2022-12-20T18:07:20.724Z,29.73
2022-12-20T18:09:49.497Z,24.08
2022-12-20T18:12:17.982Z,20.88
2022-12-20T18:14:48.570Z,22.17
2022-12-20T18:17:16.637Z,21.40
2022-12-20T18:19:45.749Z,20.45
2022-12-20T18:22:14.672Z,20.25
2022-12-20T18:24:42.877Z,20.30
2022-12-20T18:27:10.783Z,25.38
2022-12-20T18:29:38.821Z,27.33
2022-12-20T18:32:06.903Z,26.02
2022-12-20T18:34:34.960Z,23.70
2022-12-20T18:37:05.743Z,22.30
2022-12-20T18:39:34.005Z,23.75
2022-12-20T18:42:02.115Z,24.13
2022-12-20T18:44:31.136Z,22.50
2022-12-20T18:46:59.081Z,21.88
2022-12-20T18:49:27.715Z,22.33
2022-12-20T18:51:58.975Z,25.30
2022-12-20T18:54:27.199Z,23.52
2022-12-20T18:56:55.110Z,24.92
2022-12-20T18:59:23.060Z,22.30
2022-12-20T19:01:52.556Z,23.63
2022-12-20T19:04:24.628Z,23.55
2022-12-20T19:06:53.415Z,23.48
2022-12-20T19:09:22.302Z,24.10
2022-12-20T19:11:56.561Z,27.23
2022-12-20T19:14:29.044Z,26.83
2022-12-20T19:16:57.143Z,27.27
2022-12-20T19:19:25.384Z,27.10
2022-12-20T19:21:54.224Z,29.38
2022-12-20T19:24:22.573Z,28.85
2022-12-20T19:26:51.000Z,30.00
2022-12-20T19:29:18.939Z,31.55
2022-12-20T19:31:48.202Z,32.50
2022-12-20T19:34:16.581Z,32.10
2022-12-20T19:36:46.727Z,32.08
2022-12-20T19:39:18.357Z,30.02
2022-12-20T19:42:21.441Z,32.75
2022-12-20T19:44:39.107Z,32.25
2022-12-20T19:47:08.740Z,33.17
2022-12-20T19:49:36.952Z,30.15
2022-12-20T19:52:06.027Z,31.63
2022-12-20T19:54:35.267Z,29.88
2022-12-20T19:57:03.551Z,30.10
2022-12-20T19:59:31.865Z,28.20
2022-12-20T20:01:59.980Z,27.90
2022-12-20T20:04:28.759Z,28.10
2022-12-20T20:06:57.256Z,29.63
2022-12-20T20:09:25.726Z,27.50
2022-12-20T20:11:54.865Z,29.67
2022-12-20T20:14:24.373Z,25.10
2022-12-20T20:16:54.113Z,28.50
2022-12-20T20:19:22.364Z,27.13
2022-12-20T20:21:52.323Z,30.10
2022-12-20T20:24:21.044Z,27.20
2022-12-20T20:26:49.911Z,27.08
2022-12-20T20:29:18.753Z,30.35
2022-12-20T20:31:47.845Z,28.48
2022-12-20T20:34:17.392Z,27.63
2022-12-20T20:36:46.081Z,28.40
2022-12-20T20:39:14.866Z,28.67
2022-12-20T20:41:46.203Z,28.08
2022-12-20T20:44:15.082Z,26.60
2022-12-20T20:46:43.323Z,29.25
2022-12-20T20:49:12.932Z,26.85
2022-12-20T20:51:45.068Z,28.30
2022-12-20T20:54:16.461Z,28.30
2022-12-20T20:56:45.872Z,30.55
2022-12-20T20:59:17.912Z,30.20
2022-12-20T21:01:47.432Z,26.65
2022-12-20T21:04:15.739Z,29.42
2022-12-20T21:06:47.540Z,27.77
2022-12-20T21:09:16.560Z,30.42
2022-12-20T21:11:45.323Z,26.55
2022-12-20T21:14:53.087Z,27.90
2022-12-20T21:17:13.126Z,27.63
2022-12-20T21:19:41.579Z,28.08
2022-12-20T21:22:10.089Z,28.52
2022-12-20T21:24:38.347Z,29.00
2022-12-20T21:27:07.092Z,26.23
2022-12-20T21:29:38.467Z,28.33
2022-12-20T21:32:07.441Z,28.55
2022-12-20T21:34:35.568Z,28.15
2022-12-20T21:37:04.508Z,27.63
2022-12-20T21:39:33.439Z,29.55
2022-12-20T21:42:02.279Z,30.15
2022-12-20T21:44:30.796Z,28.88
2022-12-20T21:46:59.229Z,31.15
2022-12-20T21:49:27.489Z,29.63
2022-12-20T21:51:56.778Z,28.98
2022-12-20T21:54:25.046Z,30.45
2022-12-20T21:56:53.647Z,27.63
2022-12-20T21:59:22.081Z,29.33
2022-12-20T22:01:50.610Z,28.92
2022-12-20T22:04:19.406Z,29.40
2022-12-20T22:06:47.672Z,28.92
2022-12-20T22:09:17.422Z,28.88
2022-12-20T22:11:51.236Z,29.95
2022-12-20T22:14:19.330Z,26.17
2022-12-20T22:16:47.476Z,28.75
2022-12-20T22:19:15.899Z,29.08
2022-12-20T22:21:44.042Z,28.60
2022-12-20T22:24:11.947Z,29.90
2022-12-20T22:26:41.251Z,28.83
2022-12-20T22:29:10.070Z,29.33
2022-12-20T22:31:37.992Z,29.48
2022-12-20T22:34:06.014Z,29.48
2022-12-20T22:36:34.091Z,29.85
2022-12-20T22:39:01.874Z,29.33
2022-12-20T22:41:32.670Z,30.25
2022-12-20T22:44:01.683Z,29.35
2022-12-20T22:46:30.119Z,29.00
2022-12-20T22:48:59.418Z,31.60
2022-12-20T22:51:30.937Z,29.90
2022-12-20T22:54:00.162Z,29.40
2022-12-20T22:56:28.472Z,28.50
2022-12-20T22:58:56.441Z,30.42
2022-12-20T23:01:25.205Z,30.88
2022-12-20T23:03:53.300Z,30.23
2022-12-20T23:06:21.971Z,30.33
2022-12-20T23:08:50.062Z,28.80
2022-12-20T23:11:40.082Z,30.60
2022-12-20T23:14:37.975Z,29.33
2022-12-20T23:17:08.362Z,29.73
2022-12-20T23:20:02.981Z,27.27
2022-12-20T23:22:40.737Z,25.98
2022-12-20T23:25:16.614Z,28.30
2022-12-20T23:27:46.778Z,28.20
2022-12-20T23:30:17.753Z,27.63
2022-12-20T23:32:45.942Z,27.52
2022-12-20T23:35:16.519Z,25.40
2022-12-20T23:37:46.140Z,26.48
2022-12-20T23:40:16.416Z,25.33
2022-12-20T23:42:45.129Z,31.10
2022-12-20T23:45:13.339Z,29.55
2022-12-20T23:47:41.151Z,29.90
2022-12-20T23:50:09.300Z,27.88
2022-12-20T23:52:37.237Z,30.80
2022-12-20T23:55:05.933Z,29.75
2022-12-20T23:57:34.924Z,30.75
